sensor_id;sensor_type;location;lat;lon;timestamp;temperature;humidity
5276;DHT22;2661;50.786;12.728;2023-04-25T00:01:48;6.60;99.90
5276;DHT22;2661;50.786;12.728;2023-04-25T00:04:15;6.60;99.90
5276;DHT22;2661;50.786;12.728;2023-04-25T00:06:42;6.50;99.90
5276;DHT22;2661;50.786;12.728;2023-04-25T00:09:09;6.40;99.90
5276;DHT22;2661;50.786;12.728;2023-04-25T00:11:37;6.30;99.90
5276;DHT22;2661;50.786;12.728;2023-04-25T00:14:04;6.30;99.90
5276;DHT22;2661;50.786;12.728;2023-04-25T00:16:30;6.30;99.90
5276;DHT22;2661;50.786;12.728;2023-04-25T00:19:00;6.30;99.90
5276;DHT22;2661;50.786;12.728;2023-04-25T00:21:27;6.30;99.90
5276;DHT22;2661;50.786;12.728;2023-04-25T00:23:55;6.20;99.90
5276;DHT22;2661;50.786;12.728;2023-04-25T00:26:21;6.20;99.90
5276;DHT22;2661;50.786;12.728;2023-04-25T00:28:48;6.10;99.90
5276;DHT22;2661;50.786;12.728;2023-04-25T00:31:15;6.00;99.90
5276;DHT22;2661;50.786;12.728;2023-04-25T00:33:41;6.10;99.90
5276;DHT22;2661;50.786;12.728;2023-04-25T00:36:08;6.10;99.90
5276;DHT22;2661;50.786;12.728;2023-04-25T00:38:35;6.00;99.90
5276;DHT22;2661;50.786;12.728;2023-04-25T00:41:02;5.90;99.90
5276;DHT22;2661;50.786;12.728;2023-04-25T00:43:28;5.90;99.90
5276;DHT22;2661;50.786;12.728;2023-04-25T00:45:56;5.80;99.90
5276;DHT22;2661;50.786;12.728;2023-04-25T00:48:23;5.70;99.90
5276;DHT22;2661;50.786;12.728;2023-04-25T00:50:54;5.70;99.90
5276;DHT22;2661;50.786;12.728;2023-04-25T00:53:21;5.60;99.90
5276;DHT22;2661;50.786;12.728;2023-04-25T00:55:48;5.60;99.90
5276;DHT22;2661;50.786;12.728;2023-04-25T00:58:17;5.60;99.90
5276;DHT22;2661;50.786;12.728;2023-04-25T01:00:47;5.60;99.90
5276;DHT22;2661;50.786;12.728;2023-04-25T01:03:15;5.60;99.90
5276;DHT22;2661;50.786;12.728;2023-04-25T01:05:43;5.60;99.90
5276;DHT22;2661;50.786;12.728;2023-04-25T01:08:10;5.70;99.90
5276;DHT22;2661;50.786;12.728;2023-04-25T01:10:36;5.70;99.90
5276;DHT22;2661;50.786;12.728;2023-04-25T01:13:03;5.70;99.90
5276;DHT22;2661;50.786;12.728;2023-04-25T01:15:30;5.70;99.90
5276;DHT22;2661;50.786;12.728;2023-04-25T01:17:57;5.80;99.90
5276;DHT22;2661;50.786;12.728;2023-04-25T01:20:24;5.80;99.90
5276;DHT22;2661;50.786;12.728;2023-04-25T01:22:51;5.90;99.90
5276;DHT22;2661;50.786;12.728;2023-04-25T01:25:18;6.00;99.90
5276;DHT22;2661;50.786;12.728;2023-04-25T01:27:45;6.00;99.90
5276;DHT22;2661;50.786;12.728;2023-04-25T01:30:12;6.00;99.90
5276;DHT22;2661;50.786;12.728;2023-04-25T01:32:39;6.10;99.90
5276;DHT22;2661;50.786;12.728;2023-04-25T01:35:10;6.20;99.90
5276;DHT22;2661;50.786;12.728;2023-04-25T01:37:37;6.20;99.90
5276;DHT22;2661;50.786;12.728;2023-04-25T01:40:04;6.30;99.90
5276;DHT22;2661;50.786;12.728;2023-04-25T01:42:32;6.30;99.90
5276;DHT22;2661;50.786;12.728;2023-04-25T01:44:59;6.40;99.90
5276;DHT22;2661;50.786;12.728;2023-04-25T01:47:25;6.50;99.90
5276;DHT22;2661;50.786;12.728;2023-04-25T01:49:52;6.60;99.90
5276;DHT22;2661;50.786;12.728;2023-04-25T01:52:18;6.60;99.90
5276;DHT22;2661;50.786;12.728;2023-04-25T01:54:45;6.70;99.90
5276;DHT22;2661;50.786;12.728;2023-04-25T01:57:12;6.80;99.90
5276;DHT22;2661;50.786;12.728;2023-04-25T01:59:39;6.90;99.90
5276;DHT22;2661;50.786;12.728;2023-04-25T02:02:06;6.80;99.90
5276;DHT22;2661;50.786;12.728;2023-04-25T02:04:32;6.90;99.90
5276;DHT22;2661;50.786;12.728;2023-04-25T02:06:59;6.90;99.90
5276;DHT22;2661;50.786;12.728;2023-04-25T02:09:26;7.00;99.90
5276;DHT22;2661;50.786;12.728;2023-04-25T02:11:52;7.00;99.90
5276;DHT22;2661;50.786;12.728;2023-04-25T02:14:19;7.00;99.90
5276;DHT22;2661;50.786;12.728;2023-04-25T02:16:46;7.10;99.90
5276;DHT22;2661;50.786;12.728;2023-04-25T02:19:13;7.10;99.90
5276;DHT22;2661;50.786;12.728;2023-04-25T02:21:39;7.20;99.90
5276;DHT22;2661;50.786;12.728;2023-04-25T02:24:06;7.20;99.90
5276;DHT22;2661;50.786;12.728;2023-04-25T02:26:33;7.20;99.90
5276;DHT22;2661;50.786;12.728;2023-04-25T02:28:59;7.30;99.90
5276;DHT22;2661;50.786;12.728;2023-04-25T02:31:26;7.30;99.90
5276;DHT22;2661;50.786;12.728;2023-04-25T02:33:52;7.40;99.90
5276;DHT22;2661;50.786;12.728;2023-04-25T02:36:19;7.50;99.90
5276;DHT22;2661;50.786;12.728;2023-04-25T02:38:45;7.50;99.90
5276;DHT22;2661;50.786;12.728;2023-04-25T02:41:12;7.50;99.90
5276;DHT22;2661;50.786;12.728;2023-04-25T02:43:39;7.50;99.90
5276;DHT22;2661;50.786;12.728;2023-04-25T02:46:06;7.60;99.90
5276;DHT22;2661;50.786;12.728;2023-04-25T02:48:32;7.60;99.90
5276;DHT22;2661;50.786;12.728;2023-04-25T02:50:59;7.60;99.90
5276;DHT22;2661;50.786;12.728;2023-04-25T02:53:25;7.60;99.90
5276;DHT22;2661;50.786;12.728;2023-04-25T02:55:52;7.60;99.90
5276;DHT22;2661;50.786;12.728;2023-04-25T02:58:19;7.60;99.90
5276;DHT22;2661;50.786;12.728;2023-04-25T03:00:45;7.60;99.90
5276;DHT22;2661;50.786;12.728;2023-04-25T03:03:12;7.60;99.90
5276;DHT22;2661;50.786;12.728;2023-04-25T03:05:39;7.70;99.90
5276;DHT22;2661;50.786;12.728;2023-04-25T03:08:05;7.70;99.90
5276;DHT22;2661;50.786;12.728;2023-04-25T03:10:32;7.70;99.90
5276;DHT22;2661;50.786;12.728;2023-04-25T03:12:59;7.80;99.90
5276;DHT22;2661;50.786;12.728;2023-04-25T03:15:25;7.80;99.90
5276;DHT22;2661;50.786;12.728;2023-04-25T03:17:52;7.80;99.90
5276;DHT22;2661;50.786;12.728;2023-04-25T03:20:19;7.80;99.90
5276;DHT22;2661;50.786;12.728;2023-04-25T03:22:45;7.80;99.90
5276;DHT22;2661;50.786;12.728;2023-04-25T03:25:12;7.80;99.90
5276;DHT22;2661;50.786;12.728;2023-04-25T03:27:38;7.80;99.90
5276;DHT22;2661;50.786;12.728;2023-04-25T03:30:05;7.80;99.90
5276;DHT22;2661;50.786;12.728;2023-04-25T03:32:33;7.80;99.90
5276;DHT22;2661;50.786;12.728;2023-04-25T03:34:59;7.80;99.90
5276;DHT22;2661;50.786;12.728;2023-04-25T03:37:26;7.80;99.90
5276;DHT22;2661;50.786;12.728;2023-04-25T03:39:52;7.80;99.90
5276;DHT22;2661;50.786;12.728;2023-04-25T03:42:19;7.90;99.90
5276;DHT22;2661;50.786;12.728;2023-04-25T03:44:46;8.00;99.90
5276;DHT22;2661;50.786;12.728;2023-04-25T03:47:12;7.90;99.90
5276;DHT22;2661;50.786;12.728;2023-04-25T03:49:39;8.00;99.90
5276;DHT22;2661;50.786;12.728;2023-04-25T03:52:05;8.00;99.90
5276;DHT22;2661;50.786;12.728;2023-04-25T03:54:32;8.00;99.90
5276;DHT22;2661;50.786;12.728;2023-04-25T03:56:59;8.10;99.90
5276;DHT22;2661;50.786;12.728;2023-04-25T03:59:25;8.10;99.90
5276;DHT22;2661;50.786;12.728;2023-04-25T04:01:52;8.10;99.90
5276;DHT22;2661;50.786;12.728;2023-04-25T04:04:19;8.20;99.90
5276;DHT22;2661;50.786;12.728;2023-04-25T04:06:46;8.10;99.90
5276;DHT22;2661;50.786;12.728;2023-04-25T04:09:13;8.00;99.90
5276;DHT22;2661;50.786;12.728;2023-04-25T04:11:39;8.10;99.90
5276;DHT22;2661;50.786;12.728;2023-04-25T04:14:07;8.10;99.90
5276;DHT22;2661;50.786;12.728;2023-04-25T04:16:33;8.00;99.90
5276;DHT22;2661;50.786;12.728;2023-04-25T04:19:00;8.10;99.90
5276;DHT22;2661;50.786;12.728;2023-04-25T04:21:27;8.00;99.90
5276;DHT22;2661;50.786;12.728;2023-04-25T04:23:54;8.00;99.90
5276;DHT22;2661;50.786;12.728;2023-04-25T04:26:20;8.00;99.90
5276;DHT22;2661;50.786;12.728;2023-04-25T04:28:50;8.00;99.90
5276;DHT22;2661;50.786;12.728;2023-04-25T04:31:17;8.00;99.90
5276;DHT22;2661;50.786;12.728;2023-04-25T04:33:45;7.90;99.90
5276;DHT22;2661;50.786;12.728;2023-04-25T04:36:12;7.90;99.90
5276;DHT22;2661;50.786;12.728;2023-04-25T04:38:39;8.00;99.90
5276;DHT22;2661;50.786;12.728;2023-04-25T04:41:07;7.90;99.90
5276;DHT22;2661;50.786;12.728;2023-04-25T04:43:34;8.00;99.90
5276;DHT22;2661;50.786;12.728;2023-04-25T04:46:00;7.90;99.90
5276;DHT22;2661;50.786;12.728;2023-04-25T04:48:27;8.00;99.90
5276;DHT22;2661;50.786;12.728;2023-04-25T04:50:54;8.00;99.90
5276;DHT22;2661;50.786;12.728;2023-04-25T04:53:21;8.00;99.90
5276;DHT22;2661;50.786;12.728;2023-04-25T04:55:47;7.90;99.90
5276;DHT22;2661;50.786;12.728;2023-04-25T04:58:14;7.90;99.90
5276;DHT22;2661;50.786;12.728;2023-04-25T05:00:43;7.90;99.90
5276;DHT22;2661;50.786;12.728;2023-04-25T05:03:10;7.90;99.90
5276;DHT22;2661;50.786;12.728;2023-04-25T05:05:38;7.90;99.90
5276;DHT22;2661;50.786;12.728;2023-04-25T05:08:06;8.00;99.90
5276;DHT22;2661;50.786;12.728;2023-04-25T05:10:33;8.00;99.90
5276;DHT22;2661;50.786;12.728;2023-04-25T05:12:59;8.10;99.90
5276;DHT22;2661;50.786;12.728;2023-04-25T05:15:26;8.10;99.90
5276;DHT22;2661;50.786;12.728;2023-04-25T05:17:52;8.20;99.90
5276;DHT22;2661;50.786;12.728;2023-04-25T05:20:19;8.20;99.90
5276;DHT22;2661;50.786;12.728;2023-04-25T05:22:46;8.30;99.90
5276;DHT22;2661;50.786;12.728;2023-04-25T05:25:12;8.20;99.90
5276;DHT22;2661;50.786;12.728;2023-04-25T05:27:39;8.10;99.90
5276;DHT22;2661;50.786;12.728;2023-04-25T05:30:05;8.10;99.90
5276;DHT22;2661;50.786;12.728;2023-04-25T05:32:32;8.10;99.90
5276;DHT22;2661;50.786;12.728;2023-04-25T05:34:59;8.10;99.90
5276;DHT22;2661;50.786;12.728;2023-04-25T05:37:26;8.10;99.90
5276;DHT22;2661;50.786;12.728;2023-04-25T05:39:52;8.00;99.90
5276;DHT22;2661;50.786;12.728;2023-04-25T05:42:19;7.90;99.90
5276;DHT22;2661;50.786;12.728;2023-04-25T05:44:46;8.00;99.90
5276;DHT22;2661;50.786;12.728;2023-04-25T05:47:13;8.00;99.90
5276;DHT22;2661;50.786;12.728;2023-04-25T05:49:39;8.10;99.90
5276;DHT22;2661;50.786;12.728;2023-04-25T05:52:06;8.10;99.90
5276;DHT22;2661;50.786;12.728;2023-04-25T05:54:32;8.30;99.90
5276;DHT22;2661;50.786;12.728;2023-04-25T05:56:59;8.30;99.90
5276;DHT22;2661;50.786;12.728;2023-04-25T05:59:26;8.30;99.90
5276;DHT22;2661;50.786;12.728;2023-04-25T06:01:52;8.50;99.90
5276;DHT22;2661;50.786;12.728;2023-04-25T06:04:19;8.60;99.90
5276;DHT22;2661;50.786;12.728;2023-04-25T06:06:46;8.70;99.90
5276;DHT22;2661;50.786;12.728;2023-04-25T06:09:12;8.70;99.90
5276;DHT22;2661;50.786;12.728;2023-04-25T06:11:40;8.60;99.90
5276;DHT22;2661;50.786;12.728;2023-04-25T06:14:06;8.60;99.90
5276;DHT22;2661;50.786;12.728;2023-04-25T06:16:33;8.60;99.90
5276;DHT22;2661;50.786;12.728;2023-04-25T06:19:00;8.60;99.90
5276;DHT22;2661;50.786;12.728;2023-04-25T06:21:27;8.60;99.90
5276;DHT22;2661;50.786;12.728;2023-04-25T06:23:53;8.60;99.90
5276;DHT22;2661;50.786;12.728;2023-04-25T06:26:20;8.60;99.90
5276;DHT22;2661;50.786;12.728;2023-04-25T06:28:46;8.60;99.90
5276;DHT22;2661;50.786;12.728;2023-04-25T06:31:13;8.60;99.90
5276;DHT22;2661;50.786;12.728;2023-04-25T06:33:39;8.60;99.90
5276;DHT22;2661;50.786;12.728;2023-04-25T06:36:06;8.60;99.90
5276;DHT22;2661;50.786;12.728;2023-04-25T06:38:33;8.60;99.90
5276;DHT22;2661;50.786;12.728;2023-04-25T06:41:01;8.60;99.90
5276;DHT22;2661;50.786;12.728;2023-04-25T06:43:27;8.60;99.90
5276;DHT22;2661;50.786;12.728;2023-04-25T06:45:54;8.70;99.90
5276;DHT22;2661;50.786;12.728;2023-04-25T06:48:20;8.70;99.90
5276;DHT22;2661;50.786;12.728;2023-04-25T06:50:47;8.80;99.90
5276;DHT22;2661;50.786;12.728;2023-04-25T06:53:13;8.80;99.90
5276;DHT22;2661;50.786;12.728;2023-04-25T06:55:40;8.90;99.90
5276;DHT22;2661;50.786;12.728;2023-04-25T06:58:07;8.80;99.90
5276;DHT22;2661;50.786;12.728;2023-04-25T07:00:33;8.90;99.90
5276;DHT22;2661;50.786;12.728;2023-04-25T07:03:00;8.80;99.90
5276;DHT22;2661;50.786;12.728;2023-04-25T07:05:27;8.80;99.90
5276;DHT22;2661;50.786;12.728;2023-04-25T07:07:53;8.80;99.90
5276;DHT22;2661;50.786;12.728;2023-04-25T07:10:20;8.80;99.90
5276;DHT22;2661;50.786;12.728;2023-04-25T07:12:47;8.70;99.90
5276;DHT22;2661;50.786;12.728;2023-04-25T07:15:14;8.60;99.90
5276;DHT22;2661;50.786;12.728;2023-04-25T07:17:40;8.60;99.90
5276;DHT22;2661;50.786;12.728;2023-04-25T07:20:07;8.50;99.90
5276;DHT22;2661;50.786;12.728;2023-04-25T07:22:35;8.40;99.90
5276;DHT22;2661;50.786;12.728;2023-04-25T07:25:02;8.40;99.90
5276;DHT22;2661;50.786;12.728;2023-04-25T07:27:30;8.40;99.90
5276;DHT22;2661;50.786;12.728;2023-04-25T07:29:57;8.40;99.90
5276;DHT22;2661;50.786;12.728;2023-04-25T07:32:23;8.40;99.90
5276;DHT22;2661;50.786;12.728;2023-04-25T07:34:50;8.50;99.90
5276;DHT22;2661;50.786;12.728;2023-04-25T07:37:17;8.70;99.90
5276;DHT22;2661;50.786;12.728;2023-04-25T07:39:45;8.70;99.90
5276;DHT22;2661;50.786;12.728;2023-04-25T07:42:14;8.80;99.90
5276;DHT22;2661;50.786;12.728;2023-04-25T07:44:41;9.00;99.90
5276;DHT22;2661;50.786;12.728;2023-04-25T07:47:09;9.00;99.90
5276;DHT22;2661;50.786;12.728;2023-04-25T07:49:36;9.10;99.90
5276;DHT22;2661;50.786;12.728;2023-04-25T07:52:03;9.10;99.90
5276;DHT22;2661;50.786;12.728;2023-04-25T07:54:30;8.90;99.90
5276;DHT22;2661;50.786;12.728;2023-04-25T07:56:56;8.70;99.90
5276;DHT22;2661;50.786;12.728;2023-04-25T07:59:23;8.60;99.90
5276;DHT22;2661;50.786;12.728;2023-04-25T08:01:49;8.70;99.90
5276;DHT22;2661;50.786;12.728;2023-04-25T08:04:16;8.80;99.90
5276;DHT22;2661;50.786;12.728;2023-04-25T08:06:43;8.90;99.90
5276;DHT22;2661;50.786;12.728;2023-04-25T08:09:10;9.20;99.90
5276;DHT22;2661;50.786;12.728;2023-04-25T08:11:37;9.30;99.90
5276;DHT22;2661;50.786;12.728;2023-04-25T08:14:04;9.40;99.90
5276;DHT22;2661;50.786;12.728;2023-04-25T08:16:31;9.50;99.90
5276;DHT22;2661;50.786;12.728;2023-04-25T08:18:58;9.50;99.90
5276;DHT22;2661;50.786;12.728;2023-04-25T08:21:25;9.40;99.90
5276;DHT22;2661;50.786;12.728;2023-04-25T08:23:53;9.40;99.90
5276;DHT22;2661;50.786;12.728;2023-04-25T08:26:19;9.40;99.90
5276;DHT22;2661;50.786;12.728;2023-04-25T08:28:46;9.30;99.90
5276;DHT22;2661;50.786;12.728;2023-04-25T08:31:13;9.20;99.90
5276;DHT22;2661;50.786;12.728;2023-04-25T08:33:39;9.10;99.90
5276;DHT22;2661;50.786;12.728;2023-04-25T08:36:06;9.20;99.90
5276;DHT22;2661;50.786;12.728;2023-04-25T08:38:32;9.10;99.90
5276;DHT22;2661;50.786;12.728;2023-04-25T08:40:59;9.00;99.90
5276;DHT22;2661;50.786;12.728;2023-04-25T08:43:27;8.90;99.90
5276;DHT22;2661;50.786;12.728;2023-04-25T08:45:55;8.90;99.90
5276;DHT22;2661;50.786;12.728;2023-04-25T08:48:24;9.10;99.90
5276;DHT22;2661;50.786;12.728;2023-04-25T08:50:53;9.20;99.90
5276;DHT22;2661;50.786;12.728;2023-04-25T08:53:25;9.30;99.90
5276;DHT22;2661;50.786;12.728;2023-04-25T08:55:54;9.30;99.90
5276;DHT22;2661;50.786;12.728;2023-04-25T08:58:21;9.40;99.90
5276;DHT22;2661;50.786;12.728;2023-04-25T09:00:48;9.40;99.90
5276;DHT22;2661;50.786;12.728;2023-04-25T09:03:14;9.20;99.90
5276;DHT22;2661;50.786;12.728;2023-04-25T09:05:42;9.10;99.90
5276;DHT22;2661;50.786;12.728;2023-04-25T09:08:10;8.90;99.90
5276;DHT22;2661;50.786;12.728;2023-04-25T09:10:37;8.90;99.90
5276;DHT22;2661;50.786;12.728;2023-04-25T09:13:04;9.10;99.90
5276;DHT22;2661;50.786;12.728;2023-04-25T09:15:31;9.20;99.90
5276;DHT22;2661;50.786;12.728;2023-04-25T09:17:58;9.10;99.90
5276;DHT22;2661;50.786;12.728;2023-04-25T09:20:25;9.10;99.90
5276;DHT22;2661;50.786;12.728;2023-04-25T09:23:02;9.20;99.90
5276;DHT22;2661;50.786;12.728;2023-04-25T09:25:33;9.30;99.90
5276;DHT22;2661;50.786;12.728;2023-04-25T09:27:59;9.30;99.90
5276;DHT22;2661;50.786;12.728;2023-04-25T09:30:30;9.20;99.90
5276;DHT22;2661;50.786;12.728;2023-04-25T09:32:57;9.10;99.90
5276;DHT22;2661;50.786;12.728;2023-04-25T09:35:30;9.00;99.90
5276;DHT22;2661;50.786;12.728;2023-04-25T09:38:01;8.90;99.90
5276;DHT22;2661;50.786;12.728;2023-04-25T09:40:27;8.90;99.90
5276;DHT22;2661;50.786;12.728;2023-04-25T09:42:56;8.80;99.90
5276;DHT22;2661;50.786;12.728;2023-04-25T09:45:23;8.80;99.90
5276;DHT22;2661;50.786;12.728;2023-04-25T09:47:49;8.80;99.90
5276;DHT22;2661;50.786;12.728;2023-04-25T09:50:17;8.80;99.90
5276;DHT22;2661;50.786;12.728;2023-04-25T09:52:45;8.90;99.90
5276;DHT22;2661;50.786;12.728;2023-04-25T09:55:12;9.00;99.90
5276;DHT22;2661;50.786;12.728;2023-04-25T09:57:38;9.20;99.90
5276;DHT22;2661;50.786;12.728;2023-04-25T10:00:06;9.30;99.90
5276;DHT22;2661;50.786;12.728;2023-04-25T10:02:35;9.40;99.90
5276;DHT22;2661;50.786;12.728;2023-04-25T10:05:05;9.50;99.90
5276;DHT22;2661;50.786;12.728;2023-04-25T10:07:32;9.50;99.90
5276;DHT22;2661;50.786;12.728;2023-04-25T10:10:03;9.30;99.90
5276;DHT22;2661;50.786;12.728;2023-04-25T10:12:32;9.30;99.90
5276;DHT22;2661;50.786;12.728;2023-04-25T10:14:59;9.30;99.90
5276;DHT22;2661;50.786;12.728;2023-04-25T10:17:26;9.30;99.90
5276;DHT22;2661;50.786;12.728;2023-04-25T10:19:54;9.30;99.90
5276;DHT22;2661;50.786;12.728;2023-04-25T10:22:44;9.40;99.90
5276;DHT22;2661;50.786;12.728;2023-04-25T10:25:07;9.50;99.90
5276;DHT22;2661;50.786;12.728;2023-04-25T10:27:35;9.40;99.90
5276;DHT22;2661;50.786;12.728;2023-04-25T10:30:09;9.50;99.90
5276;DHT22;2661;50.786;12.728;2023-04-25T10:32:43;9.40;99.90
5276;DHT22;2661;50.786;12.728;2023-04-25T10:35:15;9.40;99.90
5276;DHT22;2661;50.786;12.728;2023-04-25T10:38:15;9.30;99.90
5276;DHT22;2661;50.786;12.728;2023-04-25T10:40:35;9.20;99.90
5276;DHT22;2661;50.786;12.728;2023-04-25T10:45:53;9.10;99.90
5276;DHT22;2661;50.786;12.728;2023-04-25T10:48:26;9.00;99.90
5276;DHT22;2661;50.786;12.728;2023-04-25T10:51:08;9.00;99.90
5276;DHT22;2661;50.786;12.728;2023-04-25T10:53:36;9.00;99.90
5276;DHT22;2661;50.786;12.728;2023-04-25T10:56:21;9.00;99.90
5276;DHT22;2661;50.786;12.728;2023-04-25T10:58:48;9.00;99.90
5276;DHT22;2661;50.786;12.728;2023-04-25T11:01:24;8.90;99.90
5276;DHT22;2661;50.786;12.728;2023-04-25T11:03:57;8.90;99.90
5276;DHT22;2661;50.786;12.728;2023-04-25T11:06:42;8.90;99.90
5276;DHT22;2661;50.786;12.728;2023-04-25T11:09:13;8.90;99.90
5276;DHT22;2661;50.786;12.728;2023-04-25T11:11:39;9.00;99.90
5276;DHT22;2661;50.786;12.728;2023-04-25T11:14:06;8.90;99.90
5276;DHT22;2661;50.786;12.728;2023-04-25T11:16:33;8.80;99.90
5276;DHT22;2661;50.786;12.728;2023-04-25T11:18:59;8.70;99.90
5276;DHT22;2661;50.786;12.728;2023-04-25T11:21:26;8.70;99.90
5276;DHT22;2661;50.786;12.728;2023-04-25T11:23:56;8.70;99.90
5276;DHT22;2661;50.786;12.728;2023-04-25T11:26:24;8.60;99.90
5276;DHT22;2661;50.786;12.728;2023-04-25T11:28:50;8.50;99.90
5276;DHT22;2661;50.786;12.728;2023-04-25T11:31:20;8.50;99.90
5276;DHT22;2661;50.786;12.728;2023-04-25T11:33:46;8.60;99.90
5276;DHT22;2661;50.786;12.728;2023-04-25T11:36:13;8.40;99.90
5276;DHT22;2661;50.786;12.728;2023-04-25T11:38:40;8.40;99.90
5276;DHT22;2661;50.786;12.728;2023-04-25T11:41:07;8.50;99.90
5276;DHT22;2661;50.786;12.728;2023-04-25T11:43:35;8.50;99.90
5276;DHT22;2661;50.786;12.728;2023-04-25T11:46:06;8.60;99.90
5276;DHT22;2661;50.786;12.728;2023-04-25T11:48:36;8.60;99.90
5276;DHT22;2661;50.786;12.728;2023-04-25T11:51:03;8.70;99.90
5276;DHT22;2661;50.786;12.728;2023-04-25T11:53:30;8.70;99.90
5276;DHT22;2661;50.786;12.728;2023-04-25T11:55:57;8.80;99.90
5276;DHT22;2661;50.786;12.728;2023-04-25T11:58:23;8.80;99.90
5276;DHT22;2661;50.786;12.728;2023-04-25T12:00:50;9.00;99.90
5276;DHT22;2661;50.786;12.728;2023-04-25T12:03:20;9.10;99.90
5276;DHT22;2661;50.786;12.728;2023-04-25T12:05:50;9.00;99.90
5276;DHT22;2661;50.786;12.728;2023-04-25T12:08:17;8.90;99.90
5276;DHT22;2661;50.786;12.728;2023-04-25T12:10:45;8.80;99.90
5276;DHT22;2661;50.786;12.728;2023-04-25T12:13:21;8.70;99.90
5276;DHT22;2661;50.786;12.728;2023-04-25T12:15:49;8.70;99.90
5276;DHT22;2661;50.786;12.728;2023-04-25T12:18:18;8.50;99.90
5276;DHT22;2661;50.786;12.728;2023-04-25T12:20:45;8.20;99.90
5276;DHT22;2661;50.786;12.728;2023-04-25T12:23:12;8.00;99.90
5276;DHT22;2661;50.786;12.728;2023-04-25T12:25:40;7.80;99.90
5276;DHT22;2661;50.786;12.728;2023-04-25T12:30:53;7.70;99.90
5276;DHT22;2661;50.786;12.728;2023-04-25T12:33:20;7.70;99.90
5276;DHT22;2661;50.786;12.728;2023-04-25T12:35:48;7.60;99.90
5276;DHT22;2661;50.786;12.728;2023-04-25T12:38:48;7.50;99.90
5276;DHT22;2661;50.786;12.728;2023-04-25T12:41:07;7.50;99.90
5276;DHT22;2661;50.786;12.728;2023-04-25T12:43:34;7.50;99.90
5276;DHT22;2661;50.786;12.728;2023-04-25T12:46:01;7.50;99.90
5276;DHT22;2661;50.786;12.728;2023-04-25T12:48:28;7.50;99.90
5276;DHT22;2661;50.786;12.728;2023-04-25T12:50:54;7.60;99.90
5276;DHT22;2661;50.786;12.728;2023-04-25T12:53:21;7.70;99.90
5276;DHT22;2661;50.786;12.728;2023-04-25T12:55:48;7.80;99.90
5276;DHT22;2661;50.786;12.728;2023-04-25T12:58:15;7.80;99.90
5276;DHT22;2661;50.786;12.728;2023-04-25T13:00:42;7.90;99.90
5276;DHT22;2661;50.786;12.728;2023-04-25T13:03:09;8.00;99.90
5276;DHT22;2661;50.786;12.728;2023-04-25T13:05:37;8.10;99.90
5276;DHT22;2661;50.786;12.728;2023-04-25T13:08:04;8.10;99.90
5276;DHT22;2661;50.786;12.728;2023-04-25T13:10:31;8.10;99.90
5276;DHT22;2661;50.786;12.728;2023-04-25T13:12:57;8.10;99.90
5276;DHT22;2661;50.786;12.728;2023-04-25T13:15:24;8.00;99.90
5276;DHT22;2661;50.786;12.728;2023-04-25T13:17:51;8.00;99.90
5276;DHT22;2661;50.786;12.728;2023-04-25T13:20:17;8.10;99.90
5276;DHT22;2661;50.786;12.728;2023-04-25T13:22:45;8.20;99.90
5276;DHT22;2661;50.786;12.728;2023-04-25T13:25:12;8.40;99.90
5276;DHT22;2661;50.786;12.728;2023-04-25T13:27:38;8.50;99.90
5276;DHT22;2661;50.786;12.728;2023-04-25T13:30:06;8.60;99.90
5276;DHT22;2661;50.786;12.728;2023-04-25T13:32:34;8.70;99.90
5276;DHT22;2661;50.786;12.728;2023-04-25T13:35:03;8.80;99.90
5276;DHT22;2661;50.786;12.728;2023-04-25T13:37:33;8.90;99.90
5276;DHT22;2661;50.786;12.728;2023-04-25T13:40:04;9.20;99.90
5276;DHT22;2661;50.786;12.728;2023-04-25T13:42:32;9.40;99.90
5276;DHT22;2661;50.786;12.728;2023-04-25T13:44:58;9.50;99.90
5276;DHT22;2661;50.786;12.728;2023-04-25T13:47:25;9.50;99.90
5276;DHT22;2661;50.786;12.728;2023-04-25T13:49:52;9.60;99.90
5276;DHT22;2661;50.786;12.728;2023-04-25T13:52:18;9.60;99.90
5276;DHT22;2661;50.786;12.728;2023-04-25T13:54:45;9.70;99.90
5276;DHT22;2661;50.786;12.728;2023-04-25T13:57:12;9.60;99.90
5276;DHT22;2661;50.786;12.728;2023-04-25T13:59:39;9.70;99.90
5276;DHT22;2661;50.786;12.728;2023-04-25T14:02:05;9.80;99.90
5276;DHT22;2661;50.786;12.728;2023-04-25T14:04:32;9.80;99.90
5276;DHT22;2661;50.786;12.728;2023-04-25T14:06:59;9.90;99.90
5276;DHT22;2661;50.786;12.728;2023-04-25T14:09:26;10.20;99.90
5276;DHT22;2661;50.786;12.728;2023-04-25T14:11:53;10.30;99.90
5276;DHT22;2661;50.786;12.728;2023-04-25T14:14:21;10.50;99.90
5276;DHT22;2661;50.786;12.728;2023-04-25T14:16:48;10.60;99.90
5276;DHT22;2661;50.786;12.728;2023-04-25T14:19:14;10.70;99.90
5276;DHT22;2661;50.786;12.728;2023-04-25T14:21:42;10.60;99.90
5276;DHT22;2661;50.786;12.728;2023-04-25T14:24:09;10.50;99.90
5276;DHT22;2661;50.786;12.728;2023-04-25T14:26:37;10.30;99.90
5276;DHT22;2661;50.786;12.728;2023-04-25T14:29:06;10.00;99.90
5276;DHT22;2661;50.786;12.728;2023-04-25T14:31:33;9.90;99.90
5276;DHT22;2661;50.786;12.728;2023-04-25T14:34:00;9.50;99.90
5276;DHT22;2661;50.786;12.728;2023-04-25T14:36:29;9.00;99.90
5276;DHT22;2661;50.786;12.728;2023-04-25T14:38:57;8.70;99.90
5276;DHT22;2661;50.786;12.728;2023-04-25T14:41:24;8.30;99.90
5276;DHT22;2661;50.786;12.728;2023-04-25T14:43:51;8.10;99.90
5276;DHT22;2661;50.786;12.728;2023-04-25T14:46:19;7.90;99.90
5276;DHT22;2661;50.786;12.728;2023-04-25T14:48:46;7.90;99.90
5276;DHT22;2661;50.786;12.728;2023-04-25T14:51:13;7.90;99.90
5276;DHT22;2661;50.786;12.728;2023-04-25T14:53:40;7.90;99.90
5276;DHT22;2661;50.786;12.728;2023-04-25T14:56:07;7.80;99.90
5276;DHT22;2661;50.786;12.728;2023-04-25T14:58:34;7.80;99.90
5276;DHT22;2661;50.786;12.728;2023-04-25T15:01:00;7.80;99.90
5276;DHT22;2661;50.786;12.728;2023-04-25T15:03:27;7.80;99.90
5276;DHT22;2661;50.786;12.728;2023-04-25T15:05:54;7.90;99.90
5276;DHT22;2661;50.786;12.728;2023-04-25T15:08:21;8.10;99.90
5276;DHT22;2661;50.786;12.728;2023-04-25T15:10:47;8.30;99.90
5276;DHT22;2661;50.786;12.728;2023-04-25T15:13:14;8.40;99.90
5276;DHT22;2661;50.786;12.728;2023-04-25T15:15:41;8.60;99.90
5276;DHT22;2661;50.786;12.728;2023-04-25T15:18:32;8.70;99.90
5276;DHT22;2661;50.786;12.728;2023-04-25T15:20:59;8.80;99.90
5276;DHT22;2661;50.786;12.728;2023-04-25T15:23:25;8.90;99.90
5276;DHT22;2661;50.786;12.728;2023-04-25T15:25:55;8.90;99.90
5276;DHT22;2661;50.786;12.728;2023-04-25T15:28:21;9.10;99.90
5276;DHT22;2661;50.786;12.728;2023-04-25T15:30:48;9.00;99.90
5276;DHT22;2661;50.786;12.728;2023-04-25T15:33:15;9.00;99.90
5276;DHT22;2661;50.786;12.728;2023-04-25T15:35:41;8.90;99.90
5276;DHT22;2661;50.786;12.728;2023-04-25T15:38:08;9.00;99.90
5276;DHT22;2661;50.786;12.728;2023-04-25T15:40:36;9.00;99.90
5276;DHT22;2661;50.786;12.728;2023-04-25T15:43:03;9.00;99.90
5276;DHT22;2661;50.786;12.728;2023-04-25T15:45:29;9.10;99.90
5276;DHT22;2661;50.786;12.728;2023-04-25T15:47:57;9.20;99.90
5276;DHT22;2661;50.786;12.728;2023-04-25T15:50:24;9.30;99.90
5276;DHT22;2661;50.786;12.728;2023-04-25T15:52:51;9.30;99.90
5276;DHT22;2661;50.786;12.728;2023-04-25T15:55:18;9.40;99.90
5276;DHT22;2661;50.786;12.728;2023-04-25T15:57:47;9.30;99.90
5276;DHT22;2661;50.786;12.728;2023-04-25T16:00:14;9.20;99.90
5276;DHT22;2661;50.786;12.728;2023-04-25T16:02:43;9.10;99.90
5276;DHT22;2661;50.786;12.728;2023-04-25T16:05:11;9.00;99.90
5276;DHT22;2661;50.786;12.728;2023-04-25T16:07:40;8.80;99.90
5276;DHT22;2661;50.786;12.728;2023-04-25T16:10:07;8.70;99.90